Time;durP1;ratioP1;P1;durP2;ratioP2;P2;SDS_P1;SDS_P2;PMS_P1;PMS_P2;Temp;Humidity;BMP_temperature;BMP_pressure;BME280_temperature;BME280_humidity;BME280_pressure;Samples;Min_cycle;Max_cycle;Signal;HPM_P1;HPM_P2
2023/07/06 00:00:41;;;;;;;5.90;4.83;;;13.10;42.90;;;;;;5101560;28;20460;-65
2023/07/06 00:03:14;;;;;;;5.73;5.00;;;13.10;1.00;;;;;;5101545;28;20456;-65
2023/07/06 00:05:44;;;;;;;7.13;4.80;;;13.10;1.00;;;;;;5102222;28;20468;-65
2023/07/06 00:08:12;;;;;;;6.47;4.97;;;13.10;1.00;;;;;;5101529;28;20461;-65
2023/07/06 00:10:39;;;;;;;8.90;5.13;;;13.10;1.00;;;;;;5101081;28;20492;-65
2023/07/06 00:13:07;;;;;;;6.20;5.40;;;13.20;1.00;;;;;;5101238;28;20460;-65
2023/07/06 00:15:34;;;;;;;5.60;5.10;;;13.10;1.00;;;;;;5101383;28;20467;-65
2023/07/06 00:18:02;;;;;;;8.67;5.70;;;13.10;6.60;;;;;;5100852;28;20460;-65
2023/07/06 00:20:32;;;;;;;6.47;4.80;;;13.20;29.40;;;;;;5101601;28;20452;-65
2023/07/06 00:22:59;;;;;;;5.13;4.27;;;13.20;1.00;;;;;;5101165;28;20510;-66
2023/07/06 00:25:26;;;;;;;8.43;5.13;;;13.20;1.00;;;;;;5101288;28;20456;-65
2023/07/06 00:27:54;;;;;;;6.50;5.17;;;13.20;1.00;;;;;;5101127;28;20456;-66
2023/07/06 00:30:30;;;;;;;6.90;5.30;;;13.10;1.00;;;;;;5099658;28;20488;-66
2023/07/06 00:33:00;;;;;;;5.20;4.53;;;13.10;1.00;;;;;;5100395;28;20467;-65
2023/07/06 00:35:27;;;;;;;5.37;4.87;;;13.10;1.00;;;;;;5101066;28;20461;-64
2023/07/06 00:37:58;;;;;;;7.37;5.57;;;13.10;1.00;;;;;;5099516;28;20460;-65
2023/07/06 00:40:26;;;;;;;5.50;5.00;;;13.00;1.00;;;;;;5099858;28;20472;-66
2023/07/06 00:42:53;;;;;;;6.00;5.40;;;13.00;1.00;;;;;;5099846;28;20469;-66
2023/07/06 00:45:21;;;;;;;6.20;5.07;;;13.00;1.00;;;;;;5100059;28;20460;-65
2023/07/06 00:47:55;;;;;;;8.27;5.13;;;12.90;1.00;;;;;;5098879;28;20557;-66
2023/07/06 00:50:28;;;;;;;7.57;4.90;;;12.90;1.00;;;;;;5098965;28;20486;-65
2023/07/06 00:53:03;;;;;;;6.13;5.13;;;12.90;1.00;;;;;;5099105;28;20486;-65
2023/07/06 00:55:36;;;;;;;6.20;4.83;;;12.90;1.00;;;;;;5079807;28;20468;-65
2023/07/06 00:58:07;;;;;;;6.10;5.47;;;12.80;1.00;;;;;;5079030;28;20522;-65
2023/07/06 01:00:36;;;;;;;7.23;5.13;;;12.80;1.00;;;;;;5079117;28;20457;-65
2023/07/06 01:03:04;;;;;;;7.13;5.40;;;12.80;10.20;;;;;;5079215;28;20458;-65
2023/07/06 01:05:33;;;;;;;6.00;5.40;;;12.80;1.00;;;;;;5079043;28;20452;-65
2023/07/06 01:08:08;;;;;;;6.57;5.87;;;12.70;61.60;;;;;;5078967;28;20735;-65
2023/07/06 01:10:38;;;;;;;6.60;5.03;;;12.80;12.80;;;;;;5078849;28;20485;-65
2023/07/06 01:13:07;;;;;;;7.00;5.53;;;12.70;13.10;;;;;;5079148;28;20519;-65
2023/07/06 01:16:10;;;;;;;5.83;5.23;;;12.80;57.30;;;;;;5079099;28;20465;-65
2023/07/06 01:18:48;;;;;;;6.30;5.70;;;12.80;53.90;;;;;;5078508;28;20518;-65
2023/07/06 01:21:21;;;;;;;8.33;6.33;;;12.80;1.00;;;;;;5078951;28;20493;-65
2023/07/06 01:24:26;;;;;;;6.10;5.50;;;12.80;5.90;;;;;;5079118;28;20508;-66
2023/07/06 01:27:30;;;;;;;8.10;5.90;;;12.80;1.00;;;;;;5063423;28;20560;-65
2023/07/06 01:30:31;;;;;;;7.47;5.63;;;12.80;25.60;;;;;;5076703;28;20542;-66
2023/07/06 01:33:06;;;;;;;8.70;5.87;;;12.70;27.40;;;;;;5078752;28;20813;-65
2023/07/06 01:35:42;;;;;;;6.50;5.80;;;12.70;52.30;;;;;;5078185;28;21019;-65
2023/07/06 01:38:10;;;;;;;7.43;5.77;;;12.70;86.40;;;;;;5078362;28;20504;-66
2023/07/06 01:40:37;;;;;;;6.43;5.77;;;12.70;99.90;;;;;;5078050;28;20825;-66
2023/07/06 01:43:05;;;;;;;6.77;6.07;;;12.70;99.90;;;;;;5078409;28;20518;-65
2023/07/06 01:45:35;;;;;;;7.30;6.00;;;12.70;99.90;;;;;;5078669;28;20465;-66
2023/07/06 01:48:10;;;;;;;5.53;4.80;;;12.70;99.90;;;;;;5092223;28;20484;-66
2023/07/06 01:50:43;;;;;;;5.97;5.37;;;12.60;9.20;;;;;;5098021;28;20601;-65
2023/07/06 01:53:17;;;;;;;7.83;5.80;;;12.60;1.00;;;;;;5098549;28;20836;-65
2023/07/06 01:55:49;;;;;;;6.77;5.60;;;12.60;1.00;;;;;;5098574;28;20901;-66
2023/07/06 01:58:24;;;;;;;7.20;5.60;;;12.60;1.00;;;;;;5095895;28;20743;-66
2023/07/06 02:00:56;;;;;;;7.60;5.67;;;12.60;1.00;;;;;;5085644;28;20456;-66
2023/07/06 02:03:26;;;;;;;6.60;5.27;;;12.50;1.00;;;;;;5098329;28;20464;-66
2023/07/06 02:05:54;;;;;;;8.23;5.93;;;12.60;13.30;;;;;;5097797;28;20924;-66
2023/07/06 02:08:23;;;;;;;7.27;5.10;;;12.50;1.00;;;;;;5097862;28;20791;-66
2023/07/06 02:10:52;;;;;;;5.53;4.93;;;12.40;1.00;;;;;;5097807;28;20488;-65
2023/07/06 02:13:20;;;;;;;7.03;5.17;;;12.40;1.00;;;;;;5098446;28;20878;-66
2023/07/06 02:15:47;;;;;;;8.10;6.40;;;12.30;48.60;;;;;;5097615;28;20548;-66
2023/07/06 02:18:14;;;;;;;8.03;5.80;;;12.30;99.90;;;;;;5097822;28;20839;-66
2023/07/06 02:20:44;;;;;;;7.93;7.03;;;12.30;99.90;;;;;;5097384;28;20603;-66
2023/07/06 02:23:12;;;;;;;7.90;6.83;;;12.30;99.90;;;;;;5097979;28;20880;-66
2023/07/06 02:25:39;;;;;;;6.70;6.10;;;12.40;99.90;;;;;;5097928;28;20759;-66
2023/07/06 02:28:08;;;;;;;9.90;7.37;;;12.50;99.90;;;;;;5097566;28;20951;-66
2023/07/06 02:30:37;;;;;;;8.57;6.30;;;12.40;99.90;;;;;;5097694;28;20495;-66
2023/07/06 02:33:05;;;;;;;9.80;6.53;;;12.50;99.90;;;;;;5098023;28;20460;-67
2023/07/06 02:35:33;;;;;;;9.57;7.10;;;12.40;99.90;;;;;;5097809;28;20563;-66
2023/07/06 02:38:02;;;;;;;8.30;7.30;;;12.40;99.90;;;;;;5097462;28;20460;-65
2023/07/06 02:40:30;;;;;;;7.97;7.17;;;12.40;99.90;;;;;;5097482;28;20677;-66
2023/07/06 02:42:57;;;;;;;7.73;6.70;;;12.40;99.90;;;;;;5097711;28;20460;-65
2023/07/06 02:45:24;;;;;;;9.27;6.70;;;12.40;99.90;;;;;;5097531;28;20525;-66
2023/07/06 02:47:53;;;;;;;7.17;6.47;;;12.40;99.90;;;;;;5097655;28;20488;-66
2023/07/06 02:50:20;;;;;;;7.77;6.97;;;12.40;99.90;;;;;;5097323;28;20567;-65
2023/07/06 02:52:47;;;;;;;6.93;6.20;;;12.30;99.90;;;;;;5097527;28;20753;-65
2023/07/06 02:55:17;;;;;;;9.93;6.73;;;12.30;99.90;;;;;;5097354;28;20464;-65
2023/07/06 02:57:45;;;;;;;9.03;6.07;;;12.20;99.90;;;;;;5097450;28;20464;-65
2023/07/06 03:00:16;;;;;;;8.70;6.33;;;12.20;96.70;;;;;;5096954;28;20460;-64
2023/07/06 03:02:44;;;;;;;7.07;6.07;;;12.20;99.90;;;;;;5096793;28;20500;-65
2023/07/06 03:05:11;;;;;;;7.93;7.13;;;12.10;1.00;;;;;;5096402;28;20766;-66
2023/07/06 03:07:38;;;;;;;11.80;7.80;;;12.00;5.50;;;;;;5095760;28;20467;-65
2023/07/06 03:10:08;;;;;;;8.90;7.33;;;12.10;99.90;;;;;;5096044;28;20465;-66
2023/07/06 03:12:37;;;;;;;7.50;6.70;;;12.10;99.90;;;;;;5095902;28;20957;-66
2023/07/06 03:15:06;;;;;;;9.77;7.43;;;12.10;99.90;;;;;;5096122;28;20814;-66
2023/07/06 03:17:33;;;;;;;8.50;7.60;;;12.10;99.90;;;;;;5096553;28;20620;-66
2023/07/06 03:20:01;;;;;;;7.60;6.70;;;12.10;99.90;;;;;;5097521;28;20555;-66
2023/07/06 03:22:31;;;;;;;7.70;6.90;;;12.00;99.90;;;;;;5100861;28;20796;-66
2023/07/06 03:24:58;;;;;;;8.20;6.80;;;12.00;99.90;;;;;;5099352;28;20611;-66
2023/07/06 03:27:25;;;;;;;10.00;7.00;;;12.00;99.90;;;;;;5099473;28;20471;-66
2023/07/06 03:29:55;;;;;;;8.73;7.83;;;11.90;99.90;;;;;;5099090;28;20783;-66
2023/07/06 03:32:22;;;;;;;6.90;6.20;;;11.90;99.90;;;;;;5098701;28;20480;-66
2023/07/06 03:34:49;;;;;;;9.50;7.27;;;11.90;99.90;;;;;;5099403;28;20464;-66
2023/07/06 03:37:18;;;;;;;9.33;6.37;;;11.80;1.00;;;;;;5098802;28;20460;-66
2023/07/06 03:39:48;;;;;;;6.97;6.27;;;11.80;1.00;;;;;;5100275;28;20488;-66
2023/07/06 03:42:17;;;;;;;8.67;7.27;;;11.80;1.00;;;;;;5100568;28;20459;-66
2023/07/06 03:44:45;;;;;;;7.47;6.07;;;11.80;1.00;;;;;;5101166;28;20530;-66
2023/07/06 03:47:14;;;;;;;7.67;6.87;;;11.80;1.00;;;;;;5101127;28;20516;-66
2023/07/06 03:49:41;;;;;;;7.67;6.73;;;11.80;1.00;;;;;;5100920;28;20465;-66
2023/07/06 03:52:09;;;;;;;10.73;8.37;;;11.80;1.00;;;;;;5100469;28;20999;-66
2023/07/06 03:54:36;;;;;;;8.20;6.10;;;11.80;1.00;;;;;;5100744;28;20514;-66
2023/07/06 03:57:05;;;;;;;8.50;6.23;;;11.80;1.00;;;;;;5100082;28;20456;-66
2023/07/06 03:59:33;;;;;;;7.80;6.50;;;11.80;1.00;;;;;;5100938;28;20504;-66
2023/07/06 04:02:00;;;;;;;9.10;7.07;;;11.80;1.00;;;;;;5100402;28;20549;-66
2023/07/06 04:04:29;;;;;;;7.03;6.33;;;11.80;1.00;;;;;;5100252;28;20560;-66
2023/07/06 04:06:56;;;;;;;12.07;6.83;;;11.90;1.00;;;;;;5100352;28;20558;-67
2023/07/06 04:09:26;;;;;;;10.63;6.80;;;11.90;1.00;;;;;;5100545;28;20900;-66
2023/07/06 04:11:53;;;;;;;9.23;7.47;;;11.90;1.00;;;;;;5100113;28;20597;-66
2023/07/06 04:14:24;;;;;;;8.10;6.00;;;11.90;1.00;;;;;;5100257;28;20456;-66
2023/07/06 04:16:52;;;;;;;9.30;7.40;;;11.90;99.90;;;;;;5101055;28;20890;-66
2023/07/06 04:19:19;;;;;;;7.57;6.70;;;11.90;99.90;;;;;;5100589;28;20460;-66
2023/07/06 04:21:48;;;;;;;6.90;6.20;;;11.90;99.90;;;;;;5100662;28;20484;-67
2023/07/06 04:24:16;;;;;;;9.20;7.00;;;11.90;99.90;;;;;;5100293;28;20506;-66
2023/07/06 04:26:45;;;;;;;10.13;7.30;;;11.90;99.90;;;;;;5100080;28;20464;-67
2023/07/06 04:29:12;;;;;;;9.07;8.17;;;12.00;99.90;;;;;;5100302;28;20460;-66
2023/07/06 04:31:40;;;;;;;8.17;6.90;;;12.00;99.90;;;;;;5099329;28;20956;-65
2023/07/06 04:34:07;;;;;;;9.43;6.83;;;12.00;99.90;;;;;;5099719;28;20468;-66
2023/07/06 04:36:35;;;;;;;9.50;7.20;;;12.10;99.90;;;;;;5100006;28;20466;-67
2023/07/06 04:39:07;;;;;;;10.27;6.13;;;12.10;99.90;;;;;;5099588;28;20490;-66
2023/07/06 04:41:37;;;;;;;10.97;7.77;;;12.20;99.90;;;;;;5100373;28;20460;-66
2023/07/06 04:44:04;;;;;;;6.30;5.60;;;12.10;99.90;;;;;;5083959;28;20461;-67
2023/07/06 04:46:31;;;;;;;9.20;6.50;;;12.20;99.90;;;;;;5079663;28;20518;-68
2023/07/06 04:49:01;;;;;;;7.97;6.70;;;12.20;99.90;;;;;;5079745;28;20461;-66
2023/07/06 04:51:28;;;;;;;7.90;7.10;;;12.20;99.90;;;;;;5080889;28;21003;-65
2023/07/06 04:53:56;;;;;;;11.17;6.40;;;12.30;78.20;;;;;;5095130;28;20472;-66
2023/07/06 04:56:24;;;;;;;8.87;7.37;;;12.30;59.00;;;;;;5100879;28;20472;-66
2023/07/06 04:58:53;;;;;;;6.77;6.00;;;12.40;1.00;;;;;;5099643;28;20461;-66
2023/07/06 05:01:23;;;;;;;10.90;7.00;;;12.40;1.00;;;;;;5101026;28;20458;-66
2023/07/06 05:03:52;;;;;;;9.10;6.27;;;12.50;1.00;;;;;;5099920;28;20870;-66
2023/07/06 05:06:19;;;;;;;8.17;5.90;;;12.60;1.00;;;;;;5099533;28;20569;-67
2023/07/06 05:08:49;;;;;;;9.37;6.60;;;12.60;1.00;;;;;;5099931;28;20723;-66
2023/07/06 05:11:17;;;;;;;7.30;5.77;;;12.70;1.00;;;;;;5099597;28;20497;-66
2023/07/06 05:13:46;;;;;;;12.73;6.10;;;12.80;99.90;;;;;;5100570;28;20464;-66
2023/07/06 05:16:15;;;;;;;7.50;5.60;;;12.80;99.90;;;;;;5101867;28;20434;-66
2023/07/06 05:18:43;;;;;;;8.33;5.37;;;12.90;99.90;;;;;;5101334;28;20452;-66
2023/07/06 05:21:10;;;;;;;7.93;5.00;;;12.90;99.90;;;;;;5101488;28;20460;-65
2023/07/06 05:23:38;;;;;;;9.90;5.07;;;13.00;99.90;;;;;;5101831;28;20874;-66
2023/07/06 05:26:05;;;;;;;7.27;4.50;;;13.10;34.30;;;;;;5105105;28;20493;-63
2023/07/06 05:28:32;;;;;;;9.20;5.03;;;13.10;1.00;;;;;;5104184;28;20480;-66
2023/07/06 05:31:03;;;;;;;9.27;5.10;;;13.10;1.00;;;;;;5105567;28;20491;-66
2023/07/06 05:33:32;;;;;;;7.97;5.23;;;13.20;1.00;;;;;;5104571;28;20496;-65
2023/07/06 05:35:59;;;;;;;7.70;5.17;;;13.20;1.00;;;;;;5101574;28;20539;-65
2023/07/06 05:38:27;;;;;;;7.87;4.90;;;13.20;99.90;;;;;;5107009;28;20558;-66
2023/07/06 05:40:54;;;;;;;7.33;5.00;;;13.30;1.00;;;;;;5101921;28;20461;-67
2023/07/06 05:43:21;;;;;;;8.47;5.30;;;13.40;99.90;;;;;;5097640;28;20459;-66
2023/07/06 05:45:49;;;;;;;7.60;4.70;;;13.50;99.90;;;;;;5098286;28;20558;-66
2023/07/06 05:48:18;;;;;;;6.23;5.10;;;13.50;99.90;;;;;;5098678;28;20456;-67
2023/07/06 05:50:45;;;;;;;7.43;4.23;;;13.70;99.90;;;;;;5098291;28;20453;-67
2023/07/06 05:53:13;;;;;;;5.33;4.70;;;13.90;99.90;;;;;;5098625;28;20496;-67
2023/07/06 05:55:43;;;;;;;7.00;4.23;;;14.10;99.90;;;;;;5098485;28;20901;-68
2023/07/06 05:58:11;;;;;;;8.43;4.50;;;14.30;99.90;;;;;;5098498;28;20460;-67
2023/07/06 06:00:41;;;;;;;6.43;4.40;;;14.30;1.00;;;;;;5097758;28;20554;-67
2023/07/06 06:03:08;;;;;;;9.40;4.87;;;14.50;1.00;;;;;;5098321;28;20821;-67
2023/07/06 06:05:37;;;;;;;13.23;5.13;;;14.60;60.30;;;;;;5098245;28;20456;-66
2023/07/06 06:08:07;;;;;;;7.10;4.10;;;14.80;74.10;;;;;;5098492;28;20733;-68
2023/07/06 06:10:34;;;;;;;8.13;4.70;;;15.00;1.90;;;;;;5097472;28;20467;-66
2023/07/06 06:13:01;;;;;;;10.50;4.47;;;15.10;1.00;;;;;;5096793;28;20489;-69
2023/07/06 06:15:29;;;;;;;7.13;4.57;;;15.10;99.90;;;;;;5098074;28;20560;-66
2023/07/06 06:17:56;;;;;;;6.67;4.37;;;15.30;1.00;;;;;;5097578;28;20456;-67
2023/07/06 06:20:23;;;;;;;8.33;4.13;;;15.50;1.00;;;;;;5097600;28;20559;-67
2023/07/06 06:22:52;;;;;;;7.50;4.47;;;15.50;99.90;;;;;;5097997;28;20924;-68
2023/07/06 06:25:19;;;;;;;8.20;4.43;;;15.70;99.90;;;;;;5097921;28;20460;-68
2023/07/06 06:27:47;;;;;;;5.23;3.40;;;15.70;99.90;;;;;;5098228;28;20877;-67
2023/07/06 06:30:16;;;;;;;6.27;3.80;;;15.70;99.90;;;;;;5089200;28;20755;-66
2023/07/06 06:32:43;;;;;;;7.30;3.60;;;15.80;99.90;;;;;;5077597;28;20926;-66
2023/07/06 06:35:25;;;;;;;6.63;4.40;;;16.10;99.90;;;;;;5077382;28;20462;-66
2023/07/06 06:37:54;;;;;;;7.13;4.00;;;16.40;99.90;;;;;;5077550;28;20492;-65
2023/07/06 06:40:23;;;;;;;7.43;4.40;;;16.60;99.90;;;;;;5077072;28;20485;-65
2023/07/06 06:42:50;;;;;;;9.97;3.70;;;16.60;99.90;;;;;;5077109;28;20565;-66
2023/07/06 06:45:19;;;;;;;11.30;5.10;;;16.60;99.90;;;;;;5077724;28;20446;-66
2023/07/06 06:47:46;;;;;;;9.73;4.30;;;16.90;99.90;;;;;;5076860;28;20468;-64
2023/07/06 06:50:16;;;;;;;5.87;3.87;;;17.20;99.90;;;;;;5077184;28;20973;-64
2023/07/06 06:52:44;;;;;;;9.50;4.23;;;17.40;99.90;;;;;;5077488;28;20493;-64
2023/07/06 06:55:12;;;;;;;5.93;3.73;;;17.70;99.90;;;;;;5077201;28;20936;-65
2023/07/06 06:57:40;;;;;;;4.57;3.73;;;17.90;99.90;;;;;;5077305;28;20586;-66
2023/07/06 07:00:09;;;;;;;15.17;4.77;;;18.00;99.90;;;;;;5076665;28;20504;-65
2023/07/06 07:02:38;;;;;;;6.43;3.60;;;18.30;99.90;;;;;;5077185;28;20535;-65
2023/07/06 07:05:06;;;;;;;4.37;3.70;;;18.50;99.90;;;;;;5077080;28;20469;-66
2023/07/06 07:07:37;;;;;;;5.63;3.53;;;18.30;99.90;;;;;;5076587;28;20465;-65
2023/07/06 07:10:09;;;;;;;4.90;3.83;;;18.40;99.90;;;;;;5075778;28;20468;-66
2023/07/06 07:12:38;;;;;;;6.10;3.67;;;18.70;99.90;;;;;;5076903;28;20539;-66
2023/07/06 07:15:08;;;;;;;7.43;3.53;;;18.90;99.90;;;;;;5077127;28;20496;-66
2023/07/06 07:17:35;;;;;;;6.40;3.30;;;19.20;99.90;;;;;;5076393;28;20467;-65
2023/07/06 07:20:03;;;;;;;5.10;3.73;;;19.50;99.90;;;;;;5077327;28;20462;-65
2023/07/06 07:22:30;;;;;;;5.73;3.50;;;19.50;99.90;;;;;;5075901;28;20522;-66
2023/07/06 07:24:58;;;;;;;8.87;4.43;;;19.70;99.90;;;;;;5075705;28;20465;-67
2023/07/06 07:27:25;;;;;;;7.07;3.80;;;19.70;99.90;;;;;;5078338;28;20552;-66
2023/07/06 07:29:54;;;;;;;6.63;3.83;;;19.60;99.90;;;;;;5096143;28;20489;-66
2023/07/06 07:32:22;;;;;;;6.97;3.73;;;19.40;99.90;;;;;;5094969;28;20481;-65
2023/07/06 07:34:50;;;;;;;6.17;4.13;;;19.30;99.90;;;;;;5095812;28;20467;-65
2023/07/06 07:37:18;;;;;;;7.10;3.87;;;19.40;99.90;;;;;;5095598;28;20577;-65
2023/07/06 07:39:46;;;;;;;6.57;4.20;;;19.40;99.90;;;;;;5097138;28;20582;-66
2023/07/06 07:42:14;;;;;;;7.20;3.30;;;19.60;99.90;;;;;;5097024;28;20460;-66
2023/07/06 07:44:44;;;;;;;6.20;3.73;;;20.00;99.90;;;;;;5097393;28;20467;-65
2023/07/06 07:47:18;;;;;;;6.20;3.40;;;20.20;99.90;;;;;;5097462;28;20456;-65
2023/07/06 07:49:46;;;;;;;7.20;3.50;;;20.10;99.90;;;;;;5096457;28;20460;-65
2023/07/06 07:52:15;;;;;;;5.97;3.67;;;20.20;99.90;;;;;;5096858;28;20500;-67
2023/07/06 07:54:43;;;;;;;6.27;3.53;;;20.40;99.90;;;;;;5097230;28;20893;-65
2023/07/06 07:57:11;;;;;;;4.07;2.80;;;20.60;99.90;;;;;;5097050;28;20471;-64
2023/07/06 07:59:38;;;;;;;5.30;3.20;;;21.00;99.90;;;;;;5096869;28;20467;-65
2023/07/06 08:02:08;;;;;;;4.00;3.47;;;21.30;99.90;;;;;;5095836;28;20460;-64
2023/07/06 08:04:37;;;;;;;4.27;3.40;;;21.50;99.90;;;;;;5097145;28;20460;-64
2023/07/06 08:07:05;;;;;;;6.03;3.50;;;21.70;99.90;;;;;;5093773;28;20454;-64
2023/07/06 08:09:33;;;;;;;6.67;3.93;;;21.40;99.90;;;;;;5088341;28;20461;-64
2023/07/06 08:12:03;;;;;;;6.50;3.17;;;21.40;99.90;;;;;;5100530;28;20507;-64
2023/07/06 08:14:36;;;;;;;5.23;3.57;;;21.50;99.90;;;;;;5100919;28;20754;-65
2023/07/06 08:17:05;;;;;;;5.87;3.47;;;21.70;99.90;;;;;;5101266;28;20467;-64
2023/07/06 08:19:33;;;;;;;4.90;3.20;;;21.80;99.90;;;;;;5100371;28;20467;-64
2023/07/06 08:22:02;;;;;;;4.13;3.40;;;22.00;99.90;;;;;;5100451;28;20460;-64
2023/07/06 08:24:29;;;;;;;7.77;4.40;;;21.70;99.90;;;;;;5100732;28;20468;-64
2023/07/06 08:26:57;;;;;;;4.53;3.23;;;21.70;99.90;;;;;;5099941;28;20464;-65
2023/07/06 08:29:25;;;;;;;6.57;3.50;;;21.90;99.90;;;;;;5099653;28;20491;-63
2023/07/06 08:31:52;;;;;;;3.50;3.20;;;21.70;99.90;;;;;;5099030;28;20467;-63
2023/07/06 08:34:19;;;;;;;4.50;3.57;;;22.00;99.90;;;;;;5098701;28;20534;-65
2023/07/06 08:36:47;;;;;;;5.30;3.80;;;22.20;99.90;;;;;;5099324;28;20845;-65
2023/07/06 08:39:16;;;;;;;7.17;3.30;;;22.00;99.90;;;;;;5098693;28;20511;-65
2023/07/06 08:41:45;;;;;;;4.20;3.47;;;22.00;99.90;;;;;;5099925;28;20896;-66
2023/07/06 08:44:16;;;;;;;5.07;3.27;;;21.50;99.90;;;;;;5099079;28;20929;-65
2023/07/06 08:46:47;;;;;;;6.83;3.37;;;21.50;99.90;;;;;;5098620;28;20815;-64
2023/07/06 08:49:25;;;;;;;7.13;3.03;;;21.60;99.90;;;;;;5098281;28;20457;-64
2023/07/06 08:51:54;;;;;;;6.90;3.43;;;22.00;99.90;;;;;;5098055;28;20563;-65
2023/07/06 08:54:25;;;;;;;3.70;3.23;;;22.10;99.90;;;;;;5097874;28;20538;-63
2023/07/06 08:56:53;;;;;;;8.03;3.50;;;21.90;99.90;;;;;;5095777;28;20567;-64
2023/07/06 08:59:34;;;;;;;7.93;3.57;;;22.00;99.90;;;;;;5098985;28;20461;-65
2023/07/06 09:02:10;;;;;;;6.37;2.70;;;22.50;99.90;;;;;;5099579;28;20499;-65
2023/07/06 09:04:38;;;;;;;5.67;3.53;;;23.00;99.90;;;;;;5098465;28;20452;-65
2023/07/06 09:07:12;;;;;;;5.57;3.53;;;23.30;99.90;;;;;;5099907;28;20897;-66
2023/07/06 09:09:43;;;;;;;5.07;3.47;;;22.70;99.90;;;;;;5099813;28;20460;-65
2023/07/06 09:12:18;;;;;;;7.80;3.60;;;23.10;99.90;;;;;;5099098;28;20460;-65
2023/07/06 09:14:52;;;;;;;4.60;2.93;;;23.50;99.90;;;;;;5099158;28;20462;-65
2023/07/06 09:17:20;;;;;;;3.83;2.47;;;23.70;99.90;;;;;;5098906;28;20468;-65
2023/07/06 09:19:48;;;;;;;3.97;3.30;;;23.60;99.90;;;;;;5099642;28;20521;-64
2023/07/06 09:22:15;;;;;;;5.13;3.03;;;24.00;99.90;;;;;;5095975;28;20457;-65
2023/07/06 09:24:47;;;;;;;3.60;2.90;;;24.10;99.90;;;;;;5092075;28;20539;-66
2023/07/06 09:27:20;;;;;;;3.37;2.87;;;24.30;99.90;;;;;;5098512;28;20514;-65
2023/07/06 09:29:58;;;;;;;5.40;2.97;;;24.00;99.90;;;;;;5101156;28;20465;-66
2023/07/06 09:32:27;;;;;;;4.70;3.40;;;23.80;99.90;;;;;;5100707;28;20973;-65
2023/07/06 09:34:56;;;;;;;5.63;2.90;;;23.80;99.90;;;;;;5099956;28;20510;-62
2023/07/06 09:37:24;;;;;;;5.63;2.90;;;23.80;99.90;;;;;;5099357;28;20465;-66
2023/07/06 09:40:04;;;;;;;5.10;2.80;;;23.80;99.90;;;;;;5079397;28;20513;-66
2023/07/06 09:42:32;;;;;;;3.50;2.73;;;23.70;99.90;;;;;;5082670;28;20441;-63
2023/07/06 09:45:01;;;;;;;6.30;3.50;;;23.90;99.90;;;;;;5094201;28;20537;-65
2023/07/06 09:47:31;;;;;;;4.50;3.10;;;24.40;99.90;;;;;;5099757;28;20808;-66
2023/07/06 09:50:04;;;;;;;7.10;3.27;;;24.20;99.90;;;;;;5098519;28;20464;-64
2023/07/06 09:52:33;;;;;;;4.77;3.13;;;24.20;99.90;;;;;;5096927;28;20496;-65
2023/07/06 09:55:09;;;;;;;4.73;3.40;;;24.30;99.90;;;;;;5098752;28;20555;-65
2023/07/06 09:57:40;;;;;;;3.90;2.90;;;24.60;99.90;;;;;;5098744;28;20459;-65
2023/07/06 10:00:17;;;;;;;4.37;2.93;;;25.00;99.90;;;;;;5096224;28;20492;-64
2023/07/06 10:02:57;;;;;;;4.87;3.77;;;24.60;99.90;;;;;;5099278;28;20456;-65
2023/07/06 10:05:36;;;;;;;4.20;3.30;;;24.00;99.90;;;;;;5101396;28;20464;-66
2023/07/06 10:08:11;;;;;;;5.63;3.37;;;23.40;99.90;;;;;;5103256;28;20523;-68
2023/07/06 10:10:48;;;;;;;4.37;3.50;;;23.60;99.90;;;;;;5101398;28;20459;-66
2023/07/06 10:13:28;;;;;;;5.70;3.20;;;24.10;99.90;;;;;;5099975;28;20484;-66
2023/07/06 10:16:01;;;;;;;3.53;2.87;;;24.50;99.90;;;;;;5081756;28;20813;-66
2023/07/06 10:18:31;;;;;;;3.33;2.90;;;24.40;99.90;;;;;;5095846;28;20524;-66
2023/07/06 10:21:06;;;;;;;3.37;2.67;;;24.20;99.90;;;;;;5098228;28;20461;-67
2023/07/06 10:23:39;;;;;;;7.07;3.40;;;24.70;99.90;;;;;;5099596;28;20727;-66
2023/07/06 10:26:19;;;;;;;4.90;3.10;;;24.20;99.90;;;;;;5098060;28;20495;-61
2023/07/06 10:28:50;;;;;;;5.10;3.13;;;24.00;99.90;;;;;;5097306;28;20632;-65
2023/07/06 10:31:21;;;;;;;6.47;3.00;;;24.20;99.90;;;;;;5096240;28;20567;-64
2023/07/06 10:33:57;;;;;;;5.33;3.00;;;24.30;99.90;;;;;;5100247;28;20516;-66
2023/07/06 10:36:32;;;;;;;5.00;3.20;;;23.90;99.90;;;;;;5101265;28;20464;-65
2023/07/06 10:38:59;;;;;;;5.23;2.90;;;23.30;99.90;;;;;;5098560;28;20487;-66
2023/07/06 10:41:41;;;;;;;3.97;2.70;;;24.10;99.90;;;;;;5097272;28;20453;-65
2023/07/06 10:44:45;;;;;;;4.60;3.17;;;24.50;99.90;;;;;;5096999;28;20474;-65
2023/07/06 10:47:37;;;;;;;4.07;2.87;;;24.40;99.90;;;;;;5103155;28;20744;-67
2023/07/06 10:50:13;;;;;;;4.07;2.70;;;25.20;99.90;;;;;;5101992;28;20529;-65
2023/07/06 10:52:43;;;;;;;4.73;3.20;;;24.60;99.90;;;;;;5102890;28;20471;-66
2023/07/06 10:55:22;;;;;;;3.00;2.40;;;24.90;99.90;;;;;;5102487;28;20582;-66
2023/07/06 10:57:54;;;;;;;2.90;2.30;;;24.30;99.90;;;;;;5100221;28;20499;-65
2023/07/06 11:00:30;;;;;;;3.83;2.80;;;24.40;99.90;;;;;;5100322;28;20460;-65
2023/07/06 11:03:01;;;;;;;2.63;2.23;;;25.50;99.90;;;;;;5099418;28;20460;-65
2023/07/06 11:05:31;;;;;;;6.37;3.40;;;26.30;99.90;;;;;;5101320;28;20491;-68
2023/07/06 11:08:00;;;;;;;3.63;2.43;;;27.10;99.90;;;;;;5103737;28;20486;-65
2023/07/06 11:10:43;;;;;;;5.03;3.00;;;26.50;99.90;;;;;;5101059;28;20467;-62
2023/07/06 11:13:21;;;;;;;4.27;2.47;;;25.40;99.90;;;;;;5101388;28;20456;-65
2023/07/06 11:15:59;;;;;;;4.23;3.10;;;24.50;99.90;;;;;;5100298;28;20513;-64
2023/07/06 11:18:34;;;;;;;3.40;2.40;;;24.40;99.90;;;;;;5102288;28;20467;-65
2023/07/06 11:21:08;;;;;;;3.70;2.80;;;24.70;99.90;;;;;;5103670;28;20456;-65
2023/07/06 11:23:41;;;;;;;3.00;2.70;;;25.30;99.90;;;;;;5100915;28;20459;-65
2023/07/06 11:26:28;;;;;;;3.93;2.50;;;25.70;99.90;;;;;;5103936;28;20827;-65
2023/07/06 11:28:57;;;;;;;4.30;2.57;;;25.70;99.90;;;;;;5100988;28;20460;-66
2023/07/06 11:31:39;;;;;;;7.40;3.83;;;25.70;99.90;;;;;;5100583;28;20519;-64
2023/07/06 11:34:19;;;;;;;3.50;3.07;;;24.80;99.90;;;;;;5099970;28;20492;-65
2023/07/06 11:36:56;;;;;;;3.53;3.00;;;25.00;99.90;;;;;;5100034;28;20435;-65
2023/07/06 11:39:30;;;;;;;4.23;3.43;;;24.60;99.90;;;;;;5099305;28;20582;-65
2023/07/06 11:41:59;;;;;;;2.47;2.27;;;23.80;99.90;;;;;;5102182;28;20456;-65
2023/07/06 11:44:45;;;;;;;3.60;2.70;;;24.20;99.90;;;;;;5102230;28;20538;-66
2023/07/06 11:47:39;;;;;;;3.07;2.87;;;25.10;99.90;;;;;;5103377;28;20460;-66
2023/07/06 11:50:11;;;;;;;2.20;2.00;;;24.90;99.90;;;;;;5067885;28;20502;-64
2023/07/06 11:52:42;;;;;;;2.43;2.20;;;24.60;99.90;;;;;;5101506;28;20546;-65
2023/07/06 11:55:28;;;;;;;4.33;2.60;;;24.60;99.90;;;;;;5101428;28;20528;-66
2023/07/06 11:58:07;;;;;;;5.87;2.83;;;24.60;99.90;;;;;;5102790;28;20464;-65
2023/07/06 12:00:52;;;;;;;3.10;2.60;;;23.60;99.90;;;;;;5082006;28;20465;-65
2023/07/06 12:03:26;;;;;;;4.90;3.03;;;23.50;99.90;;;;;;5081432;28;20784;-66
2023/07/06 12:05:56;;;;;;;3.10;2.27;;;24.40;99.90;;;;;;5080952;28;20778;-65
2023/07/06 12:08:28;;;;;;;4.10;2.90;;;25.20;99.90;;;;;;5081293;28;20476;-66
2023/07/06 12:10:59;;;;;;;3.13;2.83;;;24.50;99.90;;;;;;5081357;28;20468;-65
2023/07/06 12:13:28;;;;;;;2.83;2.50;;;23.60;99.90;;;;;;5080984;28;20548;-65
2023/07/06 12:16:05;;;;;;;4.13;2.30;;;23.80;99.90;;;;;;5080285;28;20465;-64
2023/07/06 12:18:34;;;;;;;3.37;2.07;;;24.60;99.90;;;;;;5082006;28;20930;-65
2023/07/06 12:21:03;;;;;;;2.60;2.17;;;24.90;99.90;;;;;;5099473;28;20558;-65
2023/07/06 12:23:31;;;;;;;2.53;2.30;;;25.30;99.90;;;;;;5100082;28;20466;-65
2023/07/06 12:25:59;;;;;;;3.70;2.10;;;25.50;99.90;;;;;;5100341;28;20464;-64
2023/07/06 12:28:29;;;;;;;2.07;1.87;;;25.80;99.90;;;;;;5100074;28;20743;-64
2023/07/06 12:31:00;;;;;;;2.53;2.23;;;26.60;99.90;;;;;;5100549;28;20473;-65
2023/07/06 12:33:29;;;;;;;2.73;2.50;;;26.90;99.90;;;;;;5101139;28;20558;-64
2023/07/06 12:35:57;;;;;;;3.70;2.43;;;26.90;99.90;;;;;;5100993;28;20482;-64
2023/07/06 12:38:25;;;;;;;2.60;1.80;;;26.10;99.90;;;;;;5099237;28;20464;-63
2023/07/06 12:41:13;;;;;;;2.40;2.20;;;25.90;99.90;;;;;;5098914;28;20823;-64
2023/07/06 12:43:43;;;;;;;2.33;1.93;;;25.80;99.90;;;;;;5099292;28;20555;-64
2023/07/06 12:46:14;;;;;;;2.50;2.30;;;25.80;99.90;;;;;;5100549;28;20460;-64
2023/07/06 12:48:46;;;;;;;2.90;2.17;;;26.00;99.90;;;;;;5098952;28;20460;-64
2023/07/06 12:51:21;;;;;;;2.07;1.93;;;26.20;99.90;;;;;;5099863;28;20460;-63
2023/07/06 12:53:49;;;;;;;2.20;2.00;;;26.00;99.90;;;;;;5097963;28;20488;-64
2023/07/06 12:56:19;;;;;;;3.43;2.27;;;25.80;99.90;;;;;;5100436;28;20460;-65
2023/07/06 12:58:48;;;;;;;2.20;1.93;;;26.30;99.90;;;;;;5100568;28;20555;-65
2023/07/06 13:01:20;;;;;;;2.83;2.47;;;26.70;99.90;;;;;;5099739;28;20495;-64
2023/07/06 13:03:51;;;;;;;2.77;2.23;;;26.70;99.90;;;;;;5099617;28;20506;-65
2023/07/06 13:06:20;;;;;;;2.37;2.17;;;25.90;99.90;;;;;;5099922;28;20506;-64